sensor_id;sensor_type;location;lat;lon;timestamp;P1;durP1;ratioP1;P2;durP2;ratioP2
21018;SDS011;10667;51.056;3.732;2024-01-16T00:01:05;10.40;;;4.03;;
21018;SDS011;10667;51.056;3.732;2024-01-16T00:03:31;8.90;;;3.95;;
21018;SDS011;10667;51.056;3.732;2024-01-16T00:05:57;10.73;;;4.03;;
21018;SDS011;10667;51.056;3.732;2024-01-16T00:08:23;9.80;;;3.67;;
21018;SDS011;10667;51.056;3.732;2024-01-16T00:10:50;7.32;;;3.83;;
21018;SDS011;10667;51.056;3.732;2024-01-16T00:13:15;10.80;;;4.18;;
21018;SDS011;10667;51.056;3.732;2024-01-16T00:15:42;13.48;;;4.63;;
21018;SDS011;10667;51.056;3.732;2024-01-16T00:18:08;8.60;;;3.90;;
21018;SDS011;10667;51.056;3.732;2024-01-16T00:20:33;9.98;;;3.95;;
21018;SDS011;10667;51.056;3.732;2024-01-16T00:22:59;11.25;;;4.22;;
21018;SDS011;10667;51.056;3.732;2024-01-16T00:25:25;6.75;;;3.88;;
21018;SDS011;10667;51.056;3.732;2024-01-16T00:27:51;8.43;;;4.10;;
21018;SDS011;10667;51.056;3.732;2024-01-16T00:30:17;13.80;;;4.28;;
21018;SDS011;10667;51.056;3.732;2024-01-16T00:32:43;8.82;;;4.45;;
21018;SDS011;10667;51.056;3.732;2024-01-16T00:35:09;11.80;;;4.25;;
21018;SDS011;10667;51.056;3.732;2024-01-16T00:37:37;9.93;;;4.45;;
21018;SDS011;10667;51.056;3.732;2024-01-16T00:40:03;14.07;;;4.45;;
21018;SDS011;10667;51.056;3.732;2024-01-16T00:42:30;8.27;;;3.88;;
21018;SDS011;10667;51.056;3.732;2024-01-16T00:44:56;10.52;;;4.35;;
21018;SDS011;10667;51.056;3.732;2024-01-16T00:47:23;11.27;;;4.32;;
21018;SDS011;10667;51.056;3.732;2024-01-16T00:49:49;6.95;;;4.03;;
21018;SDS011;10667;51.056;3.732;2024-01-16T00:52:15;9.30;;;4.47;;
21018;SDS011;10667;51.056;3.732;2024-01-16T00:54:40;10.90;;;4.45;;
21018;SDS011;10667;51.056;3.732;2024-01-16T00:57:07;14.75;;;4.60;;
21018;SDS011;10667;51.056;3.732;2024-01-16T00:59:33;16.08;;;4.70;;
21018;SDS011;10667;51.056;3.732;2024-01-16T01:01:58;9.77;;;4.32;;
21018;SDS011;10667;51.056;3.732;2024-01-16T01:04:24;14.57;;;4.70;;
21018;SDS011;10667;51.056;3.732;2024-01-16T01:06:50;12.73;;;4.50;;
21018;SDS011;10667;51.056;3.732;2024-01-16T01:09:16;9.18;;;4.28;;
21018;SDS011;10667;51.056;3.732;2024-01-16T01:11:42;10.65;;;4.63;;
21018;SDS011;10667;51.056;3.732;2024-01-16T01:14:07;18.17;;;4.75;;
21018;SDS011;10667;51.056;3.732;2024-01-16T01:16:33;10.23;;;4.60;;
21018;SDS011;10667;51.056;3.732;2024-01-16T01:18:59;11.30;;;4.40;;
21018;SDS011;10667;51.056;3.732;2024-01-16T01:21:25;9.40;;;5.10;;
21018;SDS011;10667;51.056;3.732;2024-01-16T01:23:50;10.18;;;5.03;;
21018;SDS011;10667;51.056;3.732;2024-01-16T01:26:16;10.43;;;4.43;;
21018;SDS011;10667;51.056;3.732;2024-01-16T01:28:44;10.82;;;4.88;;
21018;SDS011;10667;51.056;3.732;2024-01-16T01:31:10;10.30;;;4.22;;
21018;SDS011;10667;51.056;3.732;2024-01-16T01:33:37;14.88;;;5.22;;
21018;SDS011;10667;51.056;3.732;2024-01-16T01:36:03;18.50;;;5.28;;
21018;SDS011;10667;51.056;3.732;2024-01-16T01:38:29;12.20;;;5.18;;
21018;SDS011;10667;51.056;3.732;2024-01-16T01:40:54;13.20;;;4.85;;
21018;SDS011;10667;51.056;3.732;2024-01-16T01:43:21;13.40;;;5.53;;
21018;SDS011;10667;51.056;3.732;2024-01-16T01:45:54;8.88;;;5.00;;
21018;SDS011;10667;51.056;3.732;2024-01-16T01:48:28;12.30;;;4.88;;
21018;SDS011;10667;51.056;3.732;2024-01-16T01:50:54;10.40;;;4.97;;
21018;SDS011;10667;51.056;3.732;2024-01-16T01:53:19;11.60;;;5.25;;
21018;SDS011;10667;51.056;3.732;2024-01-16T01:55:45;12.85;;;4.13;;
21018;SDS011;10667;51.056;3.732;2024-01-16T01:58:11;11.40;;;5.05;;
21018;SDS011;10667;51.056;3.732;2024-01-16T02:00:37;6.57;;;4.57;;
21018;SDS011;10667;51.056;3.732;2024-01-16T02:03:03;17.40;;;5.03;;
21018;SDS011;10667;51.056;3.732;2024-01-16T02:05:29;13.40;;;4.85;;
21018;SDS011;10667;51.056;3.732;2024-01-16T02:07:56;12.00;;;4.53;;
21018;SDS011;10667;51.056;3.732;2024-01-16T02:10:23;10.55;;;4.55;;
21018;SDS011;10667;51.056;3.732;2024-01-16T02:12:49;14.57;;;4.50;;
21018;SDS011;10667;51.056;3.732;2024-01-16T02:15:15;14.30;;;4.53;;
21018;SDS011;10667;51.056;3.732;2024-01-16T02:17:40;10.40;;;3.80;;
21018;SDS011;10667;51.056;3.732;2024-01-16T02:20:06;11.52;;;3.83;;
21018;SDS011;10667;51.056;3.732;2024-01-16T02:22:32;8.30;;;4.88;;
21018;SDS011;10667;51.056;3.732;2024-01-16T02:25:00;10.77;;;3.80;;
21018;SDS011;10667;51.056;3.732;2024-01-16T02:27:26;5.95;;;3.78;;
21018;SDS011;10667;51.056;3.732;2024-01-16T02:29:52;6.60;;;4.00;;
21018;SDS011;10667;51.056;3.732;2024-01-16T02:32:17;11.27;;;4.25;;
21018;SDS011;10667;51.056;3.732;2024-01-16T02:34:43;12.18;;;4.15;;
21018;SDS011;10667;51.056;3.732;2024-01-16T02:37:08;14.00;;;3.97;;
21018;SDS011;10667;51.056;3.732;2024-01-16T02:39:34;11.30;;;4.43;;
21018;SDS011;10667;51.056;3.732;2024-01-16T02:42:00;8.73;;;4.15;;
21018;SDS011;10667;51.056;3.732;2024-01-16T02:44:25;15.80;;;4.38;;
21018;SDS011;10667;51.056;3.732;2024-01-16T02:46:51;13.00;;;4.45;;
21018;SDS011;10667;51.056;3.732;2024-01-16T02:49:17;9.10;;;3.80;;
21018;SDS011;10667;51.056;3.732;2024-01-16T02:51:42;7.15;;;3.80;;
21018;SDS011;10667;51.056;3.732;2024-01-16T02:54:08;9.98;;;4.40;;
21018;SDS011;10667;51.056;3.732;2024-01-16T02:56:34;11.48;;;4.00;;
21018;SDS011;10667;51.056;3.732;2024-01-16T02:59:00;6.97;;;3.72;;
21018;SDS011;10667;51.056;3.732;2024-01-16T03:01:26;9.63;;;4.05;;
21018;SDS011;10667;51.056;3.732;2024-01-16T03:03:52;9.55;;;3.80;;
21018;SDS011;10667;51.056;3.732;2024-01-16T03:06:24;11.80;;;4.47;;
21018;SDS011;10667;51.056;3.732;2024-01-16T03:08:50;10.80;;;4.50;;
21018;SDS011;10667;51.056;3.732;2024-01-16T03:11:16;14.05;;;5.28;;
21018;SDS011;10667;51.056;3.732;2024-01-16T03:13:42;9.18;;;4.30;;
21018;SDS011;10667;51.056;3.732;2024-01-16T03:16:09;11.50;;;4.45;;
21018;SDS011;10667;51.056;3.732;2024-01-16T03:18:36;15.65;;;4.78;;
21018;SDS011;10667;51.056;3.732;2024-01-16T03:21:03;8.20;;;5.05;;
21018;SDS011;10667;51.056;3.732;2024-01-16T03:23:29;7.78;;;5.15;;
21018;SDS011;10667;51.056;3.732;2024-01-16T03:25:55;9.48;;;5.07;;
21018;SDS011;10667;51.056;3.732;2024-01-16T03:28:21;10.10;;;5.05;;
21018;SDS011;10667;51.056;3.732;2024-01-16T03:30:46;13.07;;;5.20;;
21018;SDS011;10667;51.056;3.732;2024-01-16T03:33:12;7.88;;;5.25;;
21018;SDS011;10667;51.056;3.732;2024-01-16T03:35:38;11.48;;;4.95;;
21018;SDS011;10667;51.056;3.732;2024-01-16T03:38:03;11.88;;;5.47;;
21018;SDS011;10667;51.056;3.732;2024-01-16T03:40:29;13.80;;;5.20;;
21018;SDS011;10667;51.056;3.732;2024-01-16T03:42:59;13.27;;;4.97;;
21018;SDS011;10667;51.056;3.732;2024-01-16T03:45:25;11.32;;;4.85;;
21018;SDS011;10667;51.056;3.732;2024-01-16T03:47:50;11.70;;;4.75;;
21018;SDS011;10667;51.056;3.732;2024-01-16T03:50:16;11.35;;;4.90;;
21018;SDS011;10667;51.056;3.732;2024-01-16T03:52:42;10.32;;;4.47;;
21018;SDS011;10667;51.056;3.732;2024-01-16T03:55:07;9.95;;;4.35;;
21018;SDS011;10667;51.056;3.732;2024-01-16T03:57:33;7.63;;;4.93;;
21018;SDS011;10667;51.056;3.732;2024-01-16T03:59:59;10.68;;;5.70;;
21018;SDS011;10667;51.056;3.732;2024-01-16T04:02:24;11.60;;;4.28;;
21018;SDS011;10667;51.056;3.732;2024-01-16T04:04:50;9.35;;;4.60;;
21018;SDS011;10667;51.056;3.732;2024-01-16T04:07:15;7.93;;;4.30;;
21018;SDS011;10667;51.056;3.732;2024-01-16T04:09:44;13.23;;;4.78;;
21018;SDS011;10667;51.056;3.732;2024-01-16T04:12:09;9.05;;;3.85;;
21018;SDS011;10667;51.056;3.732;2024-01-16T04:14:36;16.30;;;4.68;;
21018;SDS011;10667;51.056;3.732;2024-01-16T04:17:01;10.10;;;4.18;;
21018;SDS011;10667;51.056;3.732;2024-01-16T04:19:27;6.35;;;3.75;;
21018;SDS011;10667;51.056;3.732;2024-01-16T04:21:53;7.72;;;3.92;;
21018;SDS011;10667;51.056;3.732;2024-01-16T04:24:19;7.97;;;4.15;;
21018;SDS011;10667;51.056;3.732;2024-01-16T04:26:44;11.50;;;4.20;;
21018;SDS011;10667;51.056;3.732;2024-01-16T04:29:10;12.10;;;4.35;;
21018;SDS011;10667;51.056;3.732;2024-01-16T04:31:40;9.05;;;3.92;;
21018;SDS011;10667;51.056;3.732;2024-01-16T04:34:08;7.25;;;3.92;;
21018;SDS011;10667;51.056;3.732;2024-01-16T04:36:34;6.53;;;4.47;;
21018;SDS011;10667;51.056;3.732;2024-01-16T04:39:00;9.73;;;4.10;;
21018;SDS011;10667;51.056;3.732;2024-01-16T04:41:26;10.00;;;4.53;;
21018;SDS011;10667;51.056;3.732;2024-01-16T04:43:51;11.73;;;4.93;;
21018;SDS011;10667;51.056;3.732;2024-01-16T04:46:17;5.80;;;3.88;;
21018;SDS011;10667;51.056;3.732;2024-01-16T04:48:43;15.80;;;4.45;;
21018;SDS011;10667;51.056;3.732;2024-01-16T04:51:08;16.40;;;4.43;;
21018;SDS011;10667;51.056;3.732;2024-01-16T04:53:34;12.60;;;4.72;;
21018;SDS011;10667;51.056;3.732;2024-01-16T04:56:00;13.18;;;4.45;;
21018;SDS011;10667;51.056;3.732;2024-01-16T04:58:25;15.07;;;4.45;;
21018;SDS011;10667;51.056;3.732;2024-01-16T05:00:51;9.57;;;3.92;;
21018;SDS011;10667;51.056;3.732;2024-01-16T05:03:17;10.50;;;4.47;;
21018;SDS011;10667;51.056;3.732;2024-01-16T05:05:42;12.77;;;5.35;;
21018;SDS011;10667;51.056;3.732;2024-01-16T05:08:08;8.05;;;3.90;;
21018;SDS011;10667;51.056;3.732;2024-01-16T05:10:34;9.13;;;4.72;;
21018;SDS011;10667;51.056;3.732;2024-01-16T05:12:59;12.63;;;4.93;;
21018;SDS011;10667;51.056;3.732;2024-01-16T05:15:25;12.98;;;4.03;;
21018;SDS011;10667;51.056;3.732;2024-01-16T05:17:51;7.47;;;4.70;;
21018;SDS011;10667;51.056;3.732;2024-01-16T05:20:18;8.52;;;4.50;;
21018;SDS011;10667;51.056;3.732;2024-01-16T05:22:44;9.23;;;5.00;;
21018;SDS011;10667;51.056;3.732;2024-01-16T05:25:10;13.85;;;4.35;;
21018;SDS011;10667;51.056;3.732;2024-01-16T05:27:35;11.52;;;4.05;;
21018;SDS011;10667;51.056;3.732;2024-01-16T05:30:01;9.50;;;4.43;;
21018;SDS011;10667;51.056;3.732;2024-01-16T05:32:27;9.88;;;4.10;;
21018;SDS011;10667;51.056;3.732;2024-01-16T05:34:52;11.82;;;4.80;;
21018;SDS011;10667;51.056;3.732;2024-01-16T05:37:21;16.23;;;5.07;;
21018;SDS011;10667;51.056;3.732;2024-01-16T05:39:47;7.70;;;4.82;;
21018;SDS011;10667;51.056;3.732;2024-01-16T05:42:12;13.93;;;4.95;;
21018;SDS011;10667;51.056;3.732;2024-01-16T05:44:38;12.77;;;4.72;;
21018;SDS011;10667;51.056;3.732;2024-01-16T05:47:04;12.73;;;4.55;;
21018;SDS011;10667;51.056;3.732;2024-01-16T05:49:30;9.27;;;4.40;;
21018;SDS011;10667;51.056;3.732;2024-01-16T05:51:56;15.80;;;4.60;;
21018;SDS011;10667;51.056;3.732;2024-01-16T05:54:22;8.85;;;3.97;;
21018;SDS011;10667;51.056;3.732;2024-01-16T05:56:48;6.60;;;4.40;;
21018;SDS011;10667;51.056;3.732;2024-01-16T05:59:15;12.60;;;4.38;;
21018;SDS011;10667;51.056;3.732;2024-01-16T06:01:41;9.15;;;4.75;;
21018;SDS011;10667;51.056;3.732;2024-01-16T06:04:06;10.38;;;4.35;;
21018;SDS011;10667;51.056;3.732;2024-01-16T06:06:32;8.73;;;4.40;;
21018;SDS011;10667;51.056;3.732;2024-01-16T06:08:58;10.40;;;4.80;;
21018;SDS011;10667;51.056;3.732;2024-01-16T06:11:31;8.68;;;4.10;;
21018;SDS011;10667;51.056;3.732;2024-01-16T06:13:57;19.67;;;4.50;;
21018;SDS011;10667;51.056;3.732;2024-01-16T06:16:24;8.93;;;4.00;;
21018;SDS011;10667;51.056;3.732;2024-01-16T06:18:50;5.53;;;3.78;;
21018;SDS011;10667;51.056;3.732;2024-01-16T06:21:16;7.85;;;4.35;;
21018;SDS011;10667;51.056;3.732;2024-01-16T06:23:42;16.38;;;4.72;;
21018;SDS011;10667;51.056;3.732;2024-01-16T06:26:08;8.75;;;4.35;;
21018;SDS011;10667;51.056;3.732;2024-01-16T06:28:34;14.23;;;4.35;;
21018;SDS011;10667;51.056;3.732;2024-01-16T06:31:00;4.68;;;3.40;;
21018;SDS011;10667;51.056;3.732;2024-01-16T06:33:26;8.60;;;3.70;;
21018;SDS011;10667;51.056;3.732;2024-01-16T06:35:51;8.52;;;4.15;;
21018;SDS011;10667;51.056;3.732;2024-01-16T06:38:20;6.32;;;4.30;;
21018;SDS011;10667;51.056;3.732;2024-01-16T06:40:46;9.73;;;4.18;;
21018;SDS011;10667;51.056;3.732;2024-01-16T06:43:11;9.68;;;3.92;;
21018;SDS011;10667;51.056;3.732;2024-01-16T06:45:40;8.40;;;4.07;;
21018;SDS011;10667;51.056;3.732;2024-01-16T06:48:07;14.48;;;4.00;;
21018;SDS011;10667;51.056;3.732;2024-01-16T06:50:33;9.77;;;3.90;;
21018;SDS011;10667;51.056;3.732;2024-01-16T06:52:58;16.45;;;4.90;;
21018;SDS011;10667;51.056;3.732;2024-01-16T06:55:24;14.65;;;4.75;;
21018;SDS011;10667;51.056;3.732;2024-01-16T06:57:50;21.20;;;6.15;;
21018;SDS011;10667;51.056;3.732;2024-01-16T07:00:15;16.48;;;6.32;;
21018;SDS011;10667;51.056;3.732;2024-01-16T07:02:41;11.63;;;4.90;;
21018;SDS011;10667;51.056;3.732;2024-01-16T07:05:10;11.55;;;5.43;;
21018;SDS011;10667;51.056;3.732;2024-01-16T07:07:36;11.05;;;5.32;;
21018;SDS011;10667;51.056;3.732;2024-01-16T07:10:02;13.48;;;5.10;;
21018;SDS011;10667;51.056;3.732;2024-01-16T07:12:28;14.55;;;5.00;;
21018;SDS011;10667;51.056;3.732;2024-01-16T07:14:54;10.35;;;4.30;;
21018;SDS011;10667;51.056;3.732;2024-01-16T07:17:19;14.15;;;5.05;;
21018;SDS011;10667;51.056;3.732;2024-01-16T07:19:45;7.72;;;4.55;;
21018;SDS011;10667;51.056;3.732;2024-01-16T07:22:11;11.18;;;5.50;;
21018;SDS011;10667;51.056;3.732;2024-01-16T07:24:36;12.18;;;4.82;;
21018;SDS011;10667;51.056;3.732;2024-01-16T07:27:02;12.63;;;4.53;;
21018;SDS011;10667;51.056;3.732;2024-01-16T07:29:27;11.90;;;4.85;;
21018;SDS011;10667;51.056;3.732;2024-01-16T07:31:53;15.02;;;4.60;;
21018;SDS011;10667;51.056;3.732;2024-01-16T07:34:19;8.80;;;3.70;;
21018;SDS011;10667;51.056;3.732;2024-01-16T07:36:47;7.55;;;4.30;;
21018;SDS011;10667;51.056;3.732;2024-01-16T07:39:13;9.18;;;4.10;;
21018;SDS011;10667;51.056;3.732;2024-01-16T07:41:39;10.07;;;4.03;;
21018;SDS011;10667;51.056;3.732;2024-01-16T07:44:05;10.07;;;4.22;;
21018;SDS011;10667;51.056;3.732;2024-01-16T07:46:30;17.17;;;4.70;;
21018;SDS011;10667;51.056;3.732;2024-01-16T07:48:56;10.55;;;4.40;;
21018;SDS011;10667;51.056;3.732;2024-01-16T07:51:22;12.00;;;4.60;;
21018;SDS011;10667;51.056;3.732;2024-01-16T07:53:47;41.03;;;6.57;;
21018;SDS011;10667;51.056;3.732;2024-01-16T07:56:15;15.63;;;4.95;;
21018;SDS011;10667;51.056;3.732;2024-01-16T07:58:41;11.43;;;4.40;;
21018;SDS011;10667;51.056;3.732;2024-01-16T08:01:06;16.10;;;4.75;;
21018;SDS011;10667;51.056;3.732;2024-01-16T08:03:32;8.68;;;4.53;;
21018;SDS011;10667;51.056;3.732;2024-01-16T08:05:57;13.48;;;5.35;;
21018;SDS011;10667;51.056;3.732;2024-01-16T08:08:24;16.20;;;4.95;;
21018;SDS011;10667;51.056;3.732;2024-01-16T08:10:49;13.20;;;4.72;;
21018;SDS011;10667;51.056;3.732;2024-01-16T08:13:15;15.52;;;5.22;;
21018;SDS011;10667;51.056;3.732;2024-01-16T08:15:41;11.77;;;4.88;;
21018;SDS011;10667;51.056;3.732;2024-01-16T08:18:06;17.33;;;5.15;;
21018;SDS011;10667;51.056;3.732;2024-01-16T08:20:32;8.07;;;4.70;;
21018;SDS011;10667;51.056;3.732;2024-01-16T08:22:57;14.27;;;5.55;;
21018;SDS011;10667;51.056;3.732;2024-01-16T08:25:23;9.80;;;4.80;;
21018;SDS011;10667;51.056;3.732;2024-01-16T08:27:49;19.35;;;5.57;;
21018;SDS011;10667;51.056;3.732;2024-01-16T08:30:14;12.65;;;5.90;;
21018;SDS011;10667;51.056;3.732;2024-01-16T08:32:40;8.63;;;4.80;;
21018;SDS011;10667;51.056;3.732;2024-01-16T08:35:06;12.23;;;4.90;;
21018;SDS011;10667;51.056;3.732;2024-01-16T08:37:32;7.80;;;4.40;;
21018;SDS011;10667;51.056;3.732;2024-01-16T08:39:59;8.52;;;5.03;;
21018;SDS011;10667;51.056;3.732;2024-01-16T08:42:24;18.65;;;5.78;;
21018;SDS011;10667;51.056;3.732;2024-01-16T08:44:50;18.85;;;5.07;;
21018;SDS011;10667;51.056;3.732;2024-01-16T08:47:16;13.48;;;4.88;;
21018;SDS011;10667;51.056;3.732;2024-01-16T08:49:42;18.98;;;4.75;;
21018;SDS011;10667;51.056;3.732;2024-01-16T08:52:08;13.30;;;5.07;;
21018;SDS011;10667;51.056;3.732;2024-01-16T08:54:34;12.88;;;6.78;;
21018;SDS011;10667;51.056;3.732;2024-01-16T08:57:00;12.38;;;5.30;;
21018;SDS011;10667;51.056;3.732;2024-01-16T08:59:26;14.85;;;5.03;;
21018;SDS011;10667;51.056;3.732;2024-01-16T09:01:53;13.00;;;5.93;;
21018;SDS011;10667;51.056;3.732;2024-01-16T09:04:19;13.20;;;5.20;;
21018;SDS011;10667;51.056;3.732;2024-01-16T09:06:44;14.68;;;5.63;;
21018;SDS011;10667;51.056;3.732;2024-01-16T09:09:10;15.85;;;5.93;;
21018;SDS011;10667;51.056;3.732;2024-01-16T09:11:37;16.95;;;5.43;;
21018;SDS011;10667;51.056;3.732;2024-01-16T09:14:03;9.85;;;4.85;;
21018;SDS011;10667;51.056;3.732;2024-01-16T09:16:29;15.75;;;6.32;;
21018;SDS011;10667;51.056;3.732;2024-01-16T09:18:54;12.43;;;5.20;;
21018;SDS011;10667;51.056;3.732;2024-01-16T09:21:20;17.25;;;5.43;;
21018;SDS011;10667;51.056;3.732;2024-01-16T09:23:46;12.43;;;5.60;;
21018;SDS011;10667;51.056;3.732;2024-01-16T09:26:12;12.32;;;5.10;;
21018;SDS011;10667;51.056;3.732;2024-01-16T09:28:37;10.88;;;5.40;;
21018;SDS011;10667;51.056;3.732;2024-01-16T09:31:05;17.33;;;5.20;;
21018;SDS011;10667;51.056;3.732;2024-01-16T09:33:31;11.13;;;5.22;;
21018;SDS011;10667;51.056;3.732;2024-01-16T09:35:57;24.25;;;5.93;;
21018;SDS011;10667;51.056;3.732;2024-01-16T09:38:22;14.27;;;5.90;;
21018;SDS011;10667;51.056;3.732;2024-01-16T09:40:48;12.77;;;5.22;;
21018;SDS011;10667;51.056;3.732;2024-01-16T09:43:15;10.73;;;5.80;;
21018;SDS011;10667;51.056;3.732;2024-01-16T09:45:42;10.40;;;5.10;;
21018;SDS011;10667;51.056;3.732;2024-01-16T09:48:08;11.10;;;5.30;;
21018;SDS011;10667;51.056;3.732;2024-01-16T09:50:35;10.02;;;5.32;;
21018;SDS011;10667;51.056;3.732;2024-01-16T09:53:01;10.32;;;6.13;;
21018;SDS011;10667;51.056;3.732;2024-01-16T09:55:27;14.20;;;5.75;;
21018;SDS011;10667;51.056;3.732;2024-01-16T09:57:53;12.07;;;5.53;;
21018;SDS011;10667;51.056;3.732;2024-01-16T10:00:19;15.10;;;5.70;;
21018;SDS011;10667;51.056;3.732;2024-01-16T10:02:45;11.27;;;5.45;;
21018;SDS011;10667;51.056;3.732;2024-01-16T10:05:12;13.50;;;5.65;;
21018;SDS011;10667;51.056;3.732;2024-01-16T10:07:39;12.20;;;5.38;;
21018;SDS011;10667;51.056;3.732;2024-01-16T10:10:06;11.75;;;5.18;;
21018;SDS011;10667;51.056;3.732;2024-01-16T10:12:36;16.67;;;5.72;;
21018;SDS011;10667;51.056;3.732;2024-01-16T10:15:05;15.25;;;5.57;;
21018;SDS011;10667;51.056;3.732;2024-01-16T10:17:39;9.85;;;4.97;;
21018;SDS011;10667;51.056;3.732;2024-01-16T10:20:07;8.05;;;4.80;;
21018;SDS011;10667;51.056;3.732;2024-01-16T10:22:38;15.55;;;5.18;;
21018;SDS011;10667;51.056;3.732;2024-01-16T10:25:17;11.20;;;5.13;;
21018;SDS011;10667;51.056;3.732;2024-01-16T10:27:45;15.57;;;6.38;;
21018;SDS011;10667;51.056;3.732;2024-01-16T10:30:11;11.02;;;5.05;;
21018;SDS011;10667;51.056;3.732;2024-01-16T10:32:38;12.13;;;4.95;;
21018;SDS011;10667;51.056;3.732;2024-01-16T10:35:08;13.43;;;4.82;;
21018;SDS011;10667;51.056;3.732;2024-01-16T10:37:41;15.32;;;4.90;;
21018;SDS011;10667;51.056;3.732;2024-01-16T10:43:00;12.40;;;5.72;;
21018;SDS011;10667;51.056;3.732;2024-01-16T10:45:28;15.48;;;5.20;;
21018;SDS011;10667;51.056;3.732;2024-01-16T10:48:01;21.60;;;5.55;;
21018;SDS011;10667;51.056;3.732;2024-01-16T10:50:31;14.75;;;5.75;;
21018;SDS011;10667;51.056;3.732;2024-01-16T10:52:59;12.30;;;4.85;;
21018;SDS011;10667;51.056;3.732;2024-01-16T10:55:27;8.48;;;4.25;;
21018;SDS011;10667;51.056;3.732;2024-01-16T10:57:54;9.57;;;4.07;;
21018;SDS011;10667;51.056;3.732;2024-01-16T11:00:22;9.63;;;4.15;;
21018;SDS011;10667;51.056;3.732;2024-01-16T11:02:59;10.35;;;4.05;;
21018;SDS011;10667;51.056;3.732;2024-01-16T11:05:31;9.40;;;4.57;;
21018;SDS011;10667;51.056;3.732;2024-01-16T11:08:00;9.73;;;4.65;;
21018;SDS011;10667;51.056;3.732;2024-01-16T11:10:27;20.77;;;4.97;;
21018;SDS011;10667;51.056;3.732;2024-01-16T11:12:53;6.43;;;4.15;;
21018;SDS011;10667;51.056;3.732;2024-01-16T11:15:20;10.98;;;4.75;;
21018;SDS011;10667;51.056;3.732;2024-01-16T11:17:46;17.20;;;5.75;;
21018;SDS011;10667;51.056;3.732;2024-01-16T11:20:15;13.20;;;4.65;;
21018;SDS011;10667;51.056;3.732;2024-01-16T11:22:44;7.35;;;4.55;;
21018;SDS011;10667;51.056;3.732;2024-01-16T11:25:11;11.40;;;4.68;;
21018;SDS011;10667;51.056;3.732;2024-01-16T11:27:42;9.50;;;4.70;;
21018;SDS011;10667;51.056;3.732;2024-01-16T11:30:09;10.52;;;4.82;;
21018;SDS011;10667;51.056;3.732;2024-01-16T11:32:40;11.38;;;4.93;;
21018;SDS011;10667;51.056;3.732;2024-01-16T11:35:10;11.30;;;5.15;;
21018;SDS011;10667;51.056;3.732;2024-01-16T11:37:39;15.55;;;5.25;;
21018;SDS011;10667;51.056;3.732;2024-01-16T11:42:43;13.20;;;5.28;;
21018;SDS011;10667;51.056;3.732;2024-01-16T11:50:38;9.70;;;4.53;;
21018;SDS011;10667;51.056;3.732;2024-01-16T11:53:05;12.43;;;5.18;;
21018;SDS011;10667;51.056;3.732;2024-01-16T11:55:34;6.97;;;4.55;;
21018;SDS011;10667;51.056;3.732;2024-01-16T12:00:40;12.13;;;4.80;;
21018;SDS011;10667;51.056;3.732;2024-01-16T12:03:07;8.30;;;4.80;;
21018;SDS011;10667;51.056;3.732;2024-01-16T12:05:34;9.88;;;4.95;;
21018;SDS011;10667;51.056;3.732;2024-01-16T12:07:59;10.45;;;5.05;;
21018;SDS011;10667;51.056;3.732;2024-01-16T12:10:28;6.28;;;4.03;;
21018;SDS011;10667;51.056;3.732;2024-01-16T12:13:00;14.85;;;5.57;;
21018;SDS011;10667;51.056;3.732;2024-01-16T12:15:27;11.07;;;5.45;;
21018;SDS011;10667;51.056;3.732;2024-01-16T12:20:20;9.45;;;4.68;;
21018;SDS011;10667;51.056;3.732;2024-01-16T12:22:56;12.57;;;5.20;;
21018;SDS011;10667;51.056;3.732;2024-01-16T12:25:22;6.55;;;4.72;;
21018;SDS011;10667;51.056;3.732;2024-01-16T12:27:57;9.90;;;5.45;;
21018;SDS011;10667;51.056;3.732;2024-01-16T12:30:31;11.95;;;6.47;;
21018;SDS011;10667;51.056;3.732;2024-01-16T12:35:37;16.92;;;6.95;;
21018;SDS011;10667;51.056;3.732;2024-01-16T12:38:07;13.95;;;5.40;;
21018;SDS011;10667;51.056;3.732;2024-01-16T12:40:37;11.90;;;5.03;;
21018;SDS011;10667;51.056;3.732;2024-01-16T12:43:05;11.15;;;5.00;;
21018;SDS011;10667;51.056;3.732;2024-01-16T12:45:31;14.77;;;5.55;;
21018;SDS011;10667;51.056;3.732;2024-01-16T12:47:58;10.90;;;4.85;;
21018;SDS011;10667;51.056;3.732;2024-01-16T12:50:26;13.68;;;4.97;;
21018;SDS011;10667;51.056;3.732;2024-01-16T12:55:31;14.68;;;5.43;;
21018;SDS011;10667;51.056;3.732;2024-01-16T13:00:53;7.13;;;3.83;;
21018;SDS011;10667;51.056;3.732;2024-01-16T13:03:21;7.47;;;3.70;;
21018;SDS011;10667;51.056;3.732;2024-01-16T13:05:58;9.48;;;3.70;;
21018;SDS011;10667;51.056;3.732;2024-01-16T13:08:25;8.13;;;3.35;;
21018;SDS011;10667;51.056;3.732;2024-01-16T13:11:04;6.97;;;3.80;;
21018;SDS011;10667;51.056;3.732;2024-01-16T13:13:30;5.63;;;3.20;;
21018;SDS011;10667;51.056;3.732;2024-01-16T13:15:57;6.28;;;3.10;;
21018;SDS011;10667;51.056;3.732;2024-01-16T13:18:23;8.52;;;3.30;;
21018;SDS011;10667;51.056;3.732;2024-01-16T13:20:51;8.73;;;3.35;;
21018;SDS011;10667;51.056;3.732;2024-01-16T13:23:18;7.07;;;3.67;;
21018;SDS011;10667;51.056;3.732;2024-01-16T13:25:45;8.43;;;3.53;;
21018;SDS011;10667;51.056;3.732;2024-01-16T13:28:12;11.18;;;3.65;;
21018;SDS011;10667;51.056;3.732;2024-01-16T13:30:39;20.77;;;4.65;;
21018;SDS011;10667;51.056;3.732;2024-01-16T13:33:05;5.38;;;3.00;;
21018;SDS011;10667;51.056;3.732;2024-01-16T13:35:31;12.20;;;3.10;;
21018;SDS011;10667;51.056;3.732;2024-01-16T13:37:56;12.48;;;3.60;;
21018;SDS011;10667;51.056;3.732;2024-01-16T13:40:23;7.53;;;3.30;;
21018;SDS011;10667;51.056;3.732;2024-01-16T13:42:49;8.57;;;3.55;;
21018;SDS011;10667;51.056;3.732;2024-01-16T13:45:14;7.10;;;3.00;;
21018;SDS011;10667;51.056;3.732;2024-01-16T13:47:41;20.77;;;3.65;;
21018;SDS011;10667;51.056;3.732;2024-01-16T13:50:07;14.52;;;3.90;;
21018;SDS011;10667;51.056;3.732;2024-01-16T13:52:36;9.40;;;3.88;;
21018;SDS011;10667;51.056;3.732;2024-01-16T13:55:02;5.15;;;2.70;;
21018;SDS011;10667;51.056;3.732;2024-01-16T13:57:30;8.75;;;3.08;;
21018;SDS011;10667;51.056;3.732;2024-01-16T13:59:57;8.18;;;3.10;;
21018;SDS011;10667;51.056;3.732;2024-01-16T14:02:23;9.30;;;3.63;;
21018;SDS011;10667;51.056;3.732;2024-01-16T14:04:49;7.80;;;3.40;;
21018;SDS011;10667;51.056;3.732;2024-01-16T14:07:15;7.15;;;3.53;;
21018;SDS011;10667;51.056;3.732;2024-01-16T14:09:41;12.48;;;3.65;;
21018;SDS011;10667;51.056;3.732;2024-01-16T14:12:07;7.97;;;3.95;;
21018;SDS011;10667;51.056;3.732;2024-01-16T14:14:33;8.88;;;3.70;;
21018;SDS011;10667;51.056;3.732;2024-01-16T14:16:59;8.70;;;3.95;;
21018;SDS011;10667;51.056;3.732;2024-01-16T14:19:25;6.93;;;3.45;;
21018;SDS011;10667;51.056;3.732;2024-01-16T14:21:52;7.63;;;3.75;;
21018;SDS011;10667;51.056;3.732;2024-01-16T14:24:18;8.13;;;3.88;;
21018;SDS011;10667;51.056;3.732;2024-01-16T14:26:44;8.48;;;3.83;;
21018;SDS011;10667;51.056;3.732;2024-01-16T14:29:10;6.15;;;2.90;;
21018;SDS011;10667;51.056;3.732;2024-01-16T14:31:36;9.65;;;3.50;;
21018;SDS011;10667;51.056;3.732;2024-01-16T14:34:02;7.50;;;2.75;;
21018;SDS011;10667;51.056;3.732;2024-01-16T14:36:28;4.97;;;2.47;;
21018;SDS011;10667;51.056;3.732;2024-01-16T14:38:55;5.28;;;2.70;;
21018;SDS011;10667;51.056;3.732;2024-01-16T14:41:21;6.47;;;3.03;;
21018;SDS011;10667;51.056;3.732;2024-01-16T14:43:47;6.10;;;3.30;;
21018;SDS011;10667;51.056;3.732;2024-01-16T14:46:13;6.63;;;2.88;;
21018;SDS011;10667;51.056;3.732;2024-01-16T14:48:44;8.90;;;3.13;;
21018;SDS011;10667;51.056;3.732;2024-01-16T14:51:10;11.73;;;3.38;;
21018;SDS011;10667;51.056;3.732;2024-01-16T14:53:36;4.35;;;3.33;;
21018;SDS011;10667;51.056;3.732;2024-01-16T14:56:02;7.13;;;3.10;;
21018;SDS011;10667;51.056;3.732;2024-01-16T14:58:30;5.10;;;3.00;;
21018;SDS011;10667;51.056;3.732;2024-01-16T15:00:56;8.63;;;2.90;;